createdAt,value
2022-10-02T00:02:25.374Z,12.10
2022-10-02T00:05:17.214Z,12.00
2022-10-02T00:08:23.943Z,12.00
2022-10-02T00:11:16.428Z,11.90
2022-10-02T00:14:06.026Z,11.90
2022-10-02T00:16:55.547Z,11.90
2022-10-02T00:19:41.538Z,11.90
2022-10-02T00:22:33.701Z,11.90
2022-10-02T00:25:31.945Z,11.80
2022-10-02T00:28:32.137Z,11.80
2022-10-02T00:31:41.599Z,11.70
2022-10-02T00:34:56.521Z,11.60
2022-10-02T00:37:49.578Z,11.50
2022-10-02T00:40:56.850Z,11.50
2022-10-02T00:44:14.123Z,11.50
2022-10-02T00:47:23.416Z,11.40
2022-10-02T00:50:28.527Z,11.40
2022-10-02T00:53:19.539Z,11.40
2022-10-02T00:56:21.025Z,11.40
2022-10-02T00:59:24.670Z,11.40
2022-10-02T01:02:13.785Z,11.40
2022-10-02T01:05:03.301Z,11.40
2022-10-02T01:07:52.918Z,11.40
2022-10-02T01:10:39.973Z,11.50
2022-10-02T01:13:26.967Z,11.50
2022-10-02T01:16:14.287Z,11.50
2022-10-02T01:19:00.349Z,11.60
2022-10-02T01:21:51.973Z,11.60
2022-10-02T01:24:54.897Z,11.60
2022-10-02T01:27:41.336Z,11.60
2022-10-02T01:30:28.773Z,11.60
2022-10-02T01:33:17.753Z,11.50
2022-10-02T01:36:04.086Z,11.50
2022-10-02T01:38:52.741Z,11.50
2022-10-02T01:41:43.699Z,11.50
2022-10-02T01:44:30.278Z,11.50
2022-10-02T01:47:25.893Z,11.50
2022-10-02T01:50:18.590Z,11.40
2022-10-02T01:53:19.946Z,11.40
2022-10-02T01:56:17.828Z,11.40
2022-10-02T01:59:46.154Z,11.40
2022-10-02T02:02:41.576Z,11.40
2022-10-02T02:05:46.395Z,11.40
2022-10-02T02:09:14.030Z,11.40
2022-10-02T02:12:14.558Z,11.40
2022-10-02T02:15:07.355Z,11.50
2022-10-02T02:18:18.508Z,11.40
2022-10-02T02:21:11.335Z,11.50
2022-10-02T02:24:01.673Z,11.50
2022-10-02T02:26:48.532Z,11.50
2022-10-02T02:29:37.674Z,11.50
2022-10-02T02:32:29.077Z,11.50
2022-10-02T02:35:23.149Z,11.50
2022-10-02T02:38:24.847Z,11.50
2022-10-02T02:41:16.610Z,11.50
2022-10-02T02:44:10.375Z,11.50
2022-10-02T02:47:04.444Z,11.50
2022-10-02T02:50:11.787Z,11.60
2022-10-02T02:53:10.022Z,11.60
2022-10-02T02:55:59.802Z,11.60
2022-10-02T02:58:56.493Z,11.70
2022-10-02T03:01:42.956Z,11.70
2022-10-02T03:04:29.449Z,11.70
2022-10-02T03:07:17.451Z,11.70
2022-10-02T03:10:14.555Z,11.70
2022-10-02T03:13:23.471Z,11.80
2022-10-02T03:16:25.284Z,11.80
2022-10-02T03:19:17.824Z,11.80
2022-10-02T03:22:21.991Z,11.80
2022-10-02T03:25:20.381Z,11.90
2022-10-02T03:28:53.913Z,11.90
2022-10-02T03:31:37.398Z,11.90
2022-10-02T03:34:23.792Z,11.90
2022-10-02T03:37:09.814Z,11.90
2022-10-02T03:40:00.581Z,11.90
2022-10-02T03:42:46.670Z,11.90
2022-10-02T03:45:50.576Z,11.90
2022-10-02T03:48:37.461Z,11.90
2022-10-02T03:51:24.382Z,11.90
2022-10-02T03:54:20.173Z,11.90
2022-10-02T03:57:10.765Z,11.90
2022-10-02T04:00:03.679Z,11.90
2022-10-02T04:02:59.291Z,11.90
2022-10-02T04:05:51.442Z,11.90
2022-10-02T04:09:01.605Z,11.90
2022-10-02T04:11:54.398Z,12.00
2022-10-02T04:14:57.857Z,12.00
2022-10-02T04:18:03.136Z,12.00
2022-10-02T04:20:49.398Z,12.00
2022-10-02T04:23:53.394Z,12.00
2022-10-02T04:26:50.979Z,12.00
2022-10-02T04:29:46.181Z,12.10
2022-10-02T04:32:35.080Z,12.10
2022-10-02T04:35:45.705Z,12.00
2022-10-02T04:38:50.136Z,12.00
2022-10-02T04:42:03.502Z,12.00
2022-10-02T04:45:28.333Z,12.00
2022-10-02T04:48:39.533Z,12.00
2022-10-02T04:51:46.866Z,11.90
2022-10-02T04:54:52.399Z,12.00
2022-10-02T04:58:23.659Z,12.00
2022-10-02T05:01:28.832Z,12.00
2022-10-02T05:04:14.853Z,12.00
2022-10-02T05:07:23.442Z,12.00
2022-10-02T05:10:31.124Z,12.00
2022-10-02T05:13:17.070Z,12.00
2022-10-02T05:16:09.043Z,12.00
2022-10-02T05:19:20.256Z,12.10
2022-10-02T05:22:37.782Z,12.10
2022-10-02T05:25:53.168Z,12.00
2022-10-02T05:29:07.054Z,12.00
2022-10-02T05:32:49.809Z,12.00
2022-10-02T05:36:01.499Z,12.00
2022-10-02T05:38:56.805Z,12.00
2022-10-02T05:41:54.005Z,12.00
2022-10-02T05:44:47.713Z,12.00
2022-10-02T05:47:42.752Z,12.00
2022-10-02T05:50:33.465Z,12.00
2022-10-02T05:54:01.192Z,12.00
2022-10-02T05:56:55.175Z,12.00
2022-10-02T06:00:23.248Z,12.00
2022-10-02T06:03:21.222Z,12.10
2022-10-02T06:06:26.410Z,12.10
2022-10-02T06:09:20.037Z,12.10
2022-10-02T06:12:09.470Z,12.20
2022-10-02T06:15:04.501Z,12.20
2022-10-02T06:17:59.458Z,12.30
2022-10-02T06:20:59.458Z,12.30
2022-10-02T06:23:53.613Z,12.40
2022-10-02T06:26:48.887Z,12.40
2022-10-02T06:29:42.394Z,12.40
2022-10-02T06:32:58.042Z,12.50
2022-10-02T06:35:56.510Z,12.50
2022-10-02T06:39:10.697Z,12.50
2022-10-02T06:42:29.108Z,12.40
2022-10-02T06:45:32.080Z,12.30
2022-10-02T06:48:23.955Z,12.20
2022-10-02T06:51:20.798Z,12.10
2022-10-02T06:54:24.978Z,12.10
2022-10-02T06:57:34.037Z,12.10
2022-10-02T07:00:22.294Z,12.00
2022-10-02T07:03:09.189Z,12.00
2022-10-02T07:06:22.242Z,12.00
2022-10-02T07:09:31.969Z,12.00
2022-10-02T07:12:29.793Z,11.90
2022-10-02T07:15:32.037Z,11.90
2022-10-02T07:18:33.335Z,12.00
2022-10-02T07:21:55.062Z,12.00
2022-10-02T07:24:49.785Z,12.00
2022-10-02T07:27:42.614Z,12.00
2022-10-02T07:30:40.199Z,12.00
2022-10-02T07:33:52.183Z,12.00
2022-10-02T07:36:41.006Z,12.00
2022-10-02T07:40:10.289Z,12.10
2022-10-02T07:43:47.603Z,12.10
2022-10-02T07:47:00.602Z,12.20
2022-10-02T07:49:56.828Z,12.20
2022-10-02T07:53:04.315Z,12.20
2022-10-02T07:55:55.305Z,12.30
2022-10-02T07:58:50.094Z,12.30
2022-10-02T08:01:41.022Z,12.30
2022-10-02T08:04:36.820Z,12.30
2022-10-02T08:07:23.867Z,12.40
2022-10-02T08:10:12.859Z,12.40
2022-10-02T08:13:03.755Z,12.40
2022-10-02T08:15:55.135Z,12.40
2022-10-02T08:19:00.161Z,12.50
2022-10-02T08:21:50.053Z,12.50
2022-10-02T08:24:49.153Z,12.50
2022-10-02T08:27:55.722Z,12.60
2022-10-02T08:30:41.763Z,12.60
2022-10-02T08:33:32.052Z,12.60
2022-10-02T08:36:27.106Z,12.70
2022-10-02T08:39:19.330Z,12.70
2022-10-02T08:42:36.109Z,12.70
2022-10-02T08:46:02.449Z,12.70
2022-10-02T08:49:15.127Z,12.80
2022-10-02T08:52:21.538Z,12.80
2022-10-02T08:55:13.370Z,12.80
2022-10-02T08:58:37.434Z,12.80
2022-10-02T09:01:45.547Z,12.90
2022-10-02T09:04:38.157Z,12.90
2022-10-02T09:08:07.851Z,12.90
2022-10-02T09:11:32.554Z,13.00
2022-10-02T09:14:33.108Z,13.00
2022-10-02T09:17:45.501Z,13.10
2022-10-02T09:20:34.610Z,13.00
2022-10-02T09:23:39.574Z,13.10
2022-10-02T09:26:35.238Z,13.10
2022-10-02T09:29:50.160Z,13.10
2022-10-02T09:33:04.259Z,13.20
2022-10-02T09:36:15.385Z,13.30
2022-10-02T09:39:34.747Z,13.30
2022-10-02T09:42:39.744Z,13.30
2022-10-02T09:45:29.088Z,13.30
2022-10-02T09:48:50.238Z,13.30
2022-10-02T09:51:58.483Z,13.40
2022-10-02T09:55:29.349Z,13.40
2022-10-02T09:58:34.016Z,13.50
2022-10-02T10:01:23.346Z,13.50
2022-10-02T10:04:53.827Z,13.60
2022-10-02T10:07:48.965Z,13.60
2022-10-02T10:11:12.881Z,13.80
2022-10-02T10:14:20.185Z,14.00
2022-10-02T10:17:31.379Z,14.10
2022-10-02T10:20:43.882Z,14.20
2022-10-02T10:23:51.919Z,14.30
2022-10-02T10:26:53.195Z,14.30
2022-10-02T10:29:58.078Z,14.40
2022-10-02T10:33:19.944Z,14.40
2022-10-02T10:36:51.543Z,14.40
2022-10-02T10:40:16.992Z,14.50
2022-10-02T10:43:16.581Z,14.50
2022-10-02T10:46:03.919Z,14.60
2022-10-02T10:49:00.579Z,14.80
2022-10-02T10:52:14.086Z,14.90
2022-10-02T10:55:11.629Z,15.00
2022-10-02T10:58:15.530Z,15.30
2022-10-02T11:01:19.696Z,15.60
2022-10-02T11:04:30.507Z,15.80
2022-10-02T11:07:41.701Z,16.20
2022-10-02T11:10:30.999Z,16.40
2022-10-02T11:13:51.355Z,16.60
2022-10-02T11:17:02.391Z,16.70
2022-10-02T11:20:44.103Z,16.80
2022-10-02T11:23:53.818Z,16.90
2022-10-02T11:26:47.982Z,17.00
2022-10-02T11:30:08.140Z,17.20
2022-10-02T11:33:05.890Z,17.30
2022-10-02T11:36:09.647Z,17.70
2022-10-02T11:38:56.110Z,18.00
2022-10-02T11:42:11.361Z,18.10
2022-10-02T11:45:30.696Z,18.30
2022-10-02T11:48:33.200Z,18.40
2022-10-02T11:51:37.838Z,18.20
2022-10-02T11:54:45.771Z,18.20
2022-10-02T11:58:00.464Z,18.00
2022-10-02T12:01:10.567Z,17.90
2022-10-02T12:04:36.630Z,17.90
2022-10-02T12:07:58.370Z,17.80
2022-10-02T12:11:15.822Z,17.80
2022-10-02T12:14:26.366Z,17.80
2022-10-02T12:17:38.927Z,17.80
2022-10-02T12:21:01.887Z,17.80
2022-10-02T12:24:18.023Z,17.90
2022-10-02T12:27:41.282Z,18.00
2022-10-02T12:30:36.212Z,18.00
2022-10-02T12:33:56.335Z,18.10
2022-10-02T12:36:58.250Z,18.40
2022-10-02T12:40:26.047Z,18.50
2022-10-02T12:43:21.463Z,18.70
2022-10-02T12:46:27.954Z,18.90
2022-10-02T12:49:32.222Z,19.00
2022-10-02T12:53:04.373Z,19.10
2022-10-02T12:56:07.265Z,19.00
2022-10-02T12:59:41.793Z,19.00
2022-10-02T13:03:01.611Z,19.00
2022-10-02T13:05:57.390Z,19.00
2022-10-02T13:08:48.280Z,19.00
2022-10-02T13:12:07.746Z,18.70
2022-10-02T13:15:04.017Z,17.80
2022-10-02T13:17:58.825Z,17.10
2022-10-02T13:21:16.058Z,16.50
2022-10-02T13:24:24.644Z,16.00
2022-10-02T13:27:16.614Z,15.30
2022-10-02T13:30:21.108Z,15.00
2022-10-02T13:33:30.070Z,14.70
2022-10-02T13:36:23.129Z,14.40
2022-10-02T13:39:30.829Z,14.30
2022-10-02T13:42:38.630Z,14.20
2022-10-02T13:45:36.048Z,14.10
2022-10-02T13:49:00.332Z,14.10
2022-10-02T13:51:55.524Z,14.10
2022-10-02T13:55:13.662Z,14.00
2022-10-02T13:57:59.997Z,14.10
2022-10-02T14:01:05.189Z,14.00
2022-10-02T14:04:03.149Z,13.90
2022-10-02T14:07:01.478Z,13.90
2022-10-02T14:10:08.018Z,13.80
2022-10-02T14:13:21.585Z,13.70
2022-10-02T14:16:36.237Z,13.70
2022-10-02T14:19:40.697Z,13.40
2022-10-02T14:22:46.455Z,13.20
2022-10-02T14:26:03.882Z,13.20
2022-10-02T14:29:08.783Z,13.30
2022-10-02T14:32:21.105Z,13.50
2022-10-02T14:35:13.038Z,13.50
2022-10-02T14:38:14.457Z,13.50
2022-10-02T14:41:12.750Z,13.50
2022-10-02T14:44:28.550Z,13.50
2022-10-02T14:47:59.766Z,13.50
2022-10-02T14:50:59.035Z,13.40
2022-10-02T14:53:57.269Z,13.30
2022-10-02T14:56:49.382Z,13.20
2022-10-02T14:59:53.502Z,13.20
2022-10-02T15:03:11.079Z,13.10
2022-10-02T15:06:21.809Z,13.10
2022-10-02T15:09:27.401Z,13.00
2022-10-02T15:12:19.626Z,13.00
2022-10-02T15:16:10.655Z,13.00
2022-10-02T15:19:17.398Z,13.00
2022-10-02T15:22:20.382Z,13.00
2022-10-02T15:25:39.062Z,13.00
2022-10-02T15:28:37.198Z,13.10
2022-10-02T15:31:55.601Z,13.10
2022-10-02T15:34:47.774Z,13.10
2022-10-02T15:37:46.342Z,13.10
2022-10-02T15:40:49.147Z,13.10
2022-10-02T15:43:58.117Z,13.00
2022-10-02T15:46:50.625Z,13.10
2022-10-02T15:50:06.611Z,13.00
2022-10-02T15:53:22.643Z,13.00
2022-10-02T15:56:40.473Z,13.10
2022-10-02T15:59:56.877Z,13.00
2022-10-02T16:02:57.343Z,13.00
2022-10-02T16:05:57.486Z,12.80
2022-10-02T16:08:57.622Z,12.70
2022-10-02T16:11:56.373Z,12.60
2022-10-02T16:14:48.743Z,12.40
2022-10-02T16:17:53.174Z,12.20
2022-10-02T16:20:57.985Z,12.10
2022-10-02T16:23:44.476Z,11.90
2022-10-02T16:26:55.534Z,11.80
2022-10-02T16:29:54.275Z,11.70
2022-10-02T16:33:04.918Z,11.70
2022-10-02T16:35:57.203Z,11.70
2022-10-02T16:39:02.729Z,11.70
2022-10-02T16:41:48.998Z,11.80
2022-10-02T16:44:59.402Z,11.80
2022-10-02T16:47:50.487Z,11.70
2022-10-02T16:51:09.336Z,11.70
2022-10-02T16:54:44.945Z,11.70
2022-10-02T16:57:39.947Z,11.70
2022-10-02T17:00:48.933Z,11.70
2022-10-02T17:03:55.087Z,11.70
2022-10-02T17:07:16.366Z,11.70
2022-10-02T17:10:18.818Z,11.70
2022-10-02T17:13:16.183Z,11.70
2022-10-02T17:16:11.611Z,11.80
2022-10-02T17:19:04.474Z,11.90
2022-10-02T17:22:11.554Z,11.90
2022-10-02T17:25:05.564Z,11.90
2022-10-02T17:27:58.882Z,11.90
2022-10-02T17:31:08.329Z,11.90
2022-10-02T17:34:11.694Z,11.90
2022-10-02T17:37:21.090Z,12.00
2022-10-02T17:40:08.816Z,12.00
2022-10-02T17:43:17.973Z,12.10
2022-10-02T17:46:19.407Z,12.10
2022-10-02T17:49:28.114Z,12.10
2022-10-02T17:53:09.509Z,12.10
2022-10-02T17:56:32.156Z,12.10
2022-10-02T17:59:26.158Z,12.10
2022-10-02T18:03:03.521Z,12.00
2022-10-02T18:06:06.214Z,12.00
2022-10-02T18:09:07.714Z,12.00
2022-10-02T18:12:35.531Z,12.00
2022-10-02T18:15:21.459Z,11.90
2022-10-02T18:18:27.225Z,11.90
2022-10-02T18:21:37.370Z,11.90
2022-10-02T18:24:39.661Z,11.90
2022-10-02T18:27:59.574Z,11.90
2022-10-02T18:31:08.885Z,11.90
2022-10-02T18:34:23.579Z,11.90
2022-10-02T18:37:47.669Z,11.90
2022-10-02T18:40:51.410Z,11.90
2022-10-02T18:43:54.896Z,11.90
2022-10-02T18:47:04.286Z,11.90
2022-10-02T18:49:56.646Z,12.00
2022-10-02T18:53:23.749Z,12.20
2022-10-02T18:56:14.418Z,12.20
2022-10-02T18:59:09.775Z,12.20
2022-10-02T19:02:14.838Z,12.20
2022-10-02T19:05:12.859Z,12.20
2022-10-02T19:08:04.969Z,12.10
2022-10-02T19:10:51.189Z,12.10
2022-10-02T19:13:41.175Z,12.10
2022-10-02T19:16:29.993Z,12.00
2022-10-02T19:19:24.406Z,12.10
2022-10-02T19:22:23.444Z,12.20
2022-10-02T19:25:16.351Z,12.20
2022-10-02T19:28:04.430Z,12.20
2022-10-02T19:30:54.326Z,12.30
2022-10-02T19:33:49.804Z,12.30
2022-10-02T19:36:42.939Z,12.20
2022-10-02T19:39:41.306Z,12.20
2022-10-02T19:42:41.099Z,12.20
2022-10-02T19:45:30.507Z,12.30
2022-10-02T19:48:18.759Z,12.30
2022-10-02T19:51:21.175Z,12.30
2022-10-02T19:54:13.665Z,12.30
2022-10-02T19:57:06.429Z,12.30
2022-10-02T19:59:54.058Z,12.20
2022-10-02T20:02:44.851Z,12.10
2022-10-02T20:05:34.030Z,12.00
2022-10-02T20:08:25.530Z,12.10
2022-10-02T20:11:20.300Z,12.20
2022-10-02T20:14:29.750Z,12.20
2022-10-02T20:17:17.827Z,12.30
2022-10-02T20:20:12.063Z,12.30
2022-10-02T20:23:01.711Z,12.30
2022-10-02T20:25:56.740Z,12.30
2022-10-02T20:28:43.249Z,12.20
2022-10-02T20:31:55.270Z,12.10
2022-10-02T20:34:52.150Z,12.00
2022-10-02T20:37:40.687Z,11.90
2022-10-02T20:40:30.480Z,11.90
2022-10-02T20:43:21.906Z,11.80
2022-10-02T20:46:37.946Z,11.70
2022-10-02T20:49:30.660Z,11.70
2022-10-02T20:52:46.180Z,11.90
2022-10-02T20:55:50.665Z,11.90
2022-10-02T20:58:58.367Z,11.90
2022-10-02T21:01:50.626Z,11.90
2022-10-02T21:04:58.666Z,12.00
2022-10-02T21:07:48.180Z,12.00
2022-10-02T21:10:56.754Z,12.00
2022-10-02T21:13:51.634Z,11.90
2022-10-02T21:16:38.241Z,11.80
2022-10-02T21:19:46.226Z,11.70
2022-10-02T21:23:03.271Z,11.70
2022-10-02T21:26:08.006Z,11.70
2022-10-02T21:29:11.866Z,11.80
2022-10-02T21:32:23.122Z,11.90
2022-10-02T21:35:32.093Z,11.90
2022-10-02T21:38:30.183Z,12.00
2022-10-02T21:41:35.018Z,12.00
2022-10-02T21:44:37.054Z,11.90
2022-10-02T21:47:49.646Z,11.80
2022-10-02T21:51:00.574Z,11.90
2022-10-02T21:54:19.006Z,11.90
2022-10-02T21:57:30.227Z,11.90
2022-10-02T22:00:21.891Z,11.90
2022-10-02T22:03:45.534Z,11.90
2022-10-02T22:07:03.797Z,12.00
2022-10-02T22:10:02.279Z,12.00
2022-10-02T22:12:57.210Z,11.90
2022-10-02T22:15:55.273Z,11.90
2022-10-02T22:19:18.943Z,11.90
2022-10-02T22:22:08.592Z,11.90
2022-10-02T22:25:03.806Z,12.00
2022-10-02T22:27:53.059Z,12.00
2022-10-02T22:30:54.907Z,12.00
2022-10-02T22:33:44.302Z,12.00
2022-10-02T22:36:51.337Z,11.90
2022-10-02T22:40:08.416Z,11.90
2022-10-02T22:43:00.747Z,11.90
2022-10-02T22:46:18.151Z,12.00
2022-10-02T22:49:24.610Z,12.10
2022-10-02T22:52:16.223Z,12.10
2022-10-02T22:55:26.405Z,12.10
2022-10-02T22:58:35.951Z,12.00
2022-10-02T23:01:30.180Z,11.90
2022-10-02T23:04:48.825Z,12.00
2022-10-02T23:07:53.771Z,12.00
2022-10-02T23:10:53.364Z,12.00
2022-10-02T23:14:09.510Z,12.10
2022-10-02T23:17:34.951Z,12.00
2022-10-02T23:20:33.023Z,12.10
2022-10-02T23:23:35.656Z,11.90
2022-10-02T23:26:51.315Z,11.90
2022-10-02T23:30:02.696Z,11.90
2022-10-02T23:33:15.794Z,11.90
2022-10-02T23:36:11.745Z,11.90
2022-10-02T23:38:57.979Z,11.90
2022-10-02T23:41:48.796Z,11.90
2022-10-02T23:44:51.042Z,11.90
2022-10-02T23:47:54.707Z,12.00
2022-10-02T23:51:33.954Z,12.00
2022-10-02T23:54:46.016Z,11.90
2022-10-02T23:57:51.026Z,11.90
